createdAt,value
2018-03-23T00:02:24.329Z,17.90
2018-03-23T00:04:52.226Z,17.60
2018-03-23T00:07:20.187Z,19.30
2018-03-23T00:09:48.124Z,18.03
2018-03-23T00:12:16.099Z,18.80
2018-03-23T00:14:44.595Z,16.40
2018-03-23T00:17:12.565Z,19.10
2018-03-23T00:19:40.821Z,20.20
2018-03-23T00:22:08.788Z,18.87
2018-03-23T00:24:36.804Z,18.03
2018-03-23T00:27:04.750Z,18.50
2018-03-23T00:29:32.728Z,18.63
2018-03-23T00:32:00.670Z,17.60
2018-03-23T00:34:28.603Z,17.47
2018-03-23T00:36:56.559Z,16.90
2018-03-23T00:39:24.493Z,16.93
2018-03-23T00:41:52.473Z,18.10
2018-03-23T00:44:20.409Z,17.60
2018-03-23T00:46:48.400Z,16.77
2018-03-23T00:49:16.451Z,17.43
2018-03-23T00:51:44.479Z,18.33
2018-03-23T00:54:12.419Z,16.93
2018-03-23T00:56:40.377Z,17.77
2018-03-23T00:59:08.346Z,17.13
2018-03-23T01:01:36.257Z,19.10
2018-03-23T01:04:04.209Z,16.63
2018-03-23T01:06:32.255Z,19.57
2018-03-23T01:09:00.149Z,18.13
2018-03-23T01:11:28.249Z,18.10
2018-03-23T01:13:56.250Z,19.20
2018-03-23T01:16:24.152Z,19.80
2018-03-23T01:18:52.132Z,20.80
2018-03-23T01:21:20.074Z,19.40
2018-03-23T01:23:48.039Z,19.73
2018-03-23T01:26:16.005Z,19.50
2018-03-23T01:28:43.951Z,19.30
2018-03-23T01:31:11.886Z,19.10
2018-03-23T01:33:39.806Z,20.77
2018-03-23T01:36:07.786Z,19.53
2018-03-23T01:38:35.722Z,18.90
2018-03-23T01:41:03.648Z,20.77
2018-03-23T01:43:31.612Z,18.20
2018-03-23T01:45:59.550Z,19.40
2018-03-23T01:48:27.544Z,19.83
2018-03-23T01:50:55.497Z,19.07
2018-03-23T01:53:35.317Z,20.13
2018-03-23T01:56:03.237Z,17.90
2018-03-23T01:58:31.332Z,18.67
2018-03-23T02:00:59.274Z,19.30
2018-03-23T02:03:27.250Z,19.20
2018-03-23T02:05:55.210Z,17.73
2018-03-23T02:08:23.184Z,19.37
2018-03-23T02:10:51.132Z,20.77
2018-03-23T02:13:19.053Z,19.60
2018-03-23T02:15:47.008Z,20.13
2018-03-23T02:18:14.945Z,20.10
2018-03-23T02:20:42.995Z,19.00
2018-03-23T02:23:10.926Z,18.70
2018-03-23T02:25:38.866Z,19.43
2018-03-23T02:28:06.836Z,20.87
2018-03-23T02:30:34.781Z,19.80
2018-03-23T02:33:02.702Z,20.70
2018-03-23T02:35:30.668Z,20.50
2018-03-23T02:37:58.607Z,21.17
2018-03-23T02:40:26.564Z,20.90
2018-03-23T02:42:54.474Z,22.87
2018-03-23T02:45:22.410Z,21.17
2018-03-23T02:47:50.365Z,23.03
2018-03-23T02:50:18.312Z,21.03
2018-03-23T02:52:46.246Z,20.87
2018-03-23T02:55:14.192Z,22.40
2018-03-23T02:57:42.132Z,21.03
2018-03-23T03:00:10.078Z,22.30
2018-03-23T03:02:38.024Z,22.70
2018-03-23T03:05:05.965Z,22.17
2018-03-23T03:07:33.907Z,22.20
2018-03-23T03:10:01.872Z,23.13
2018-03-23T03:12:29.796Z,21.00
2018-03-23T03:14:57.774Z,23.40
2018-03-23T03:17:25.718Z,24.27
2018-03-23T03:19:53.648Z,23.17
2018-03-23T03:22:21.573Z,23.50
2018-03-23T03:24:49.536Z,23.00
2018-03-23T03:27:17.494Z,24.00
2018-03-23T03:29:45.437Z,21.13
2018-03-23T03:32:13.371Z,23.77
2018-03-23T03:34:41.301Z,23.50
2018-03-23T03:37:09.237Z,22.23
2018-03-23T03:39:37.186Z,21.90
2018-03-23T03:42:05.167Z,21.63
2018-03-23T03:44:33.107Z,23.77
2018-03-23T03:47:01.038Z,24.23
2018-03-23T03:49:28.990Z,24.33
2018-03-23T03:51:56.925Z,25.27
2018-03-23T03:54:24.884Z,25.10
2018-03-23T03:56:52.835Z,23.83
2018-03-23T03:59:20.818Z,25.40
2018-03-23T04:01:48.793Z,27.93
2018-03-23T04:04:16.813Z,24.00
2018-03-23T04:06:44.801Z,25.53
2018-03-23T04:09:12.861Z,25.20
2018-03-23T04:11:40.879Z,25.60
2018-03-23T04:14:08.897Z,26.33
2018-03-23T04:16:36.907Z,27.03
2018-03-23T04:19:04.945Z,25.70
2018-03-23T04:21:32.965Z,26.73
2018-03-23T04:24:00.986Z,24.23
2018-03-23T04:26:28.992Z,27.03
2018-03-23T04:28:57.029Z,28.07
2018-03-23T04:31:25.030Z,28.03
2018-03-23T04:33:53.066Z,25.57
2018-03-23T04:36:21.117Z,26.20
2018-03-23T04:38:49.124Z,31.23
2018-03-23T04:41:17.160Z,29.27
2018-03-23T04:43:45.150Z,27.50
2018-03-23T04:46:13.174Z,27.57
2018-03-23T04:48:41.188Z,24.30
2018-03-23T04:51:09.184Z,26.07
2018-03-23T04:53:37.224Z,29.20
2018-03-23T04:56:05.229Z,27.40
2018-03-23T04:58:33.365Z,29.03
2018-03-23T05:01:01.380Z,28.10
2018-03-23T05:03:29.414Z,28.80
2018-03-23T05:05:57.415Z,28.30
2018-03-23T05:08:25.454Z,25.37
2018-03-23T05:10:53.477Z,27.60
2018-03-23T05:13:21.540Z,25.00
2018-03-23T05:15:49.562Z,24.67
2018-03-23T05:18:17.620Z,22.83
2018-03-23T05:20:45.690Z,23.37
2018-03-23T05:23:13.707Z,22.50
2018-03-23T05:25:41.759Z,21.17
2018-03-23T05:28:09.753Z,23.30
2018-03-23T05:30:37.795Z,23.20
2018-03-23T05:33:05.793Z,22.70
2018-03-23T05:35:33.836Z,27.97
2018-03-23T05:38:01.917Z,28.13
2018-03-23T05:40:29.982Z,25.67
2018-03-23T05:42:58.025Z,27.00
2018-03-23T05:45:26.033Z,29.70
2018-03-23T05:47:54.078Z,29.60
2018-03-23T05:50:22.093Z,26.30
2018-03-23T05:52:50.171Z,28.73
2018-03-23T05:55:18.305Z,27.80
2018-03-23T05:57:46.381Z,28.80
2018-03-23T06:00:14.379Z,26.90
2018-03-23T06:02:42.391Z,29.80
2018-03-23T06:05:10.388Z,28.70
2018-03-23T06:07:38.419Z,28.77
2018-03-23T06:10:06.561Z,28.50
2018-03-23T06:12:34.980Z,30.73
2018-03-23T06:15:03.009Z,28.63
2018-03-23T06:17:31.045Z,28.80
2018-03-23T06:20:00.442Z,27.07
2018-03-23T06:22:28.466Z,29.30
2018-03-23T06:24:56.482Z,26.60
2018-03-23T06:27:24.507Z,27.67
2018-03-23T06:29:52.546Z,30.43
2018-03-23T06:32:20.574Z,28.13
2018-03-23T06:34:48.596Z,29.63
2018-03-23T06:37:16.749Z,29.83
2018-03-23T06:39:45.431Z,29.00
2018-03-23T06:42:13.556Z,31.50
2018-03-23T06:44:42.576Z,29.47
2018-03-23T06:47:10.695Z,28.83
2018-03-23T06:49:39.706Z,28.00
2018-03-23T06:52:07.800Z,27.23
2018-03-23T06:54:36.189Z,28.70
2018-03-23T06:57:04.292Z,25.10
2018-03-23T06:59:32.321Z,27.33
2018-03-23T07:02:00.854Z,25.90
2018-03-23T07:04:28.903Z,24.47
2018-03-23T07:06:56.925Z,22.33
2018-03-23T07:09:24.983Z,25.67
2018-03-23T07:11:52.997Z,24.00
2018-03-23T07:14:21.152Z,24.77
2018-03-23T07:16:49.361Z,26.70
2018-03-23T07:19:17.561Z,25.43
2018-03-23T07:21:45.673Z,27.53
2018-03-23T07:24:13.787Z,27.80
2018-03-23T07:26:41.906Z,25.40
2018-03-23T07:29:10.054Z,24.40
2018-03-23T07:31:38.104Z,22.40
2018-03-23T07:34:06.160Z,24.07
2018-03-23T07:36:34.269Z,23.13
2018-03-23T07:39:02.401Z,23.93
2018-03-23T07:41:30.435Z,22.90
2018-03-23T07:43:58.445Z,24.80
2018-03-23T07:46:26.449Z,23.70
2018-03-23T07:48:55.278Z,23.30
2018-03-23T07:51:23.594Z,21.47
2018-03-23T07:53:51.618Z,23.47
2018-03-23T07:56:19.691Z,21.73
2018-03-23T07:58:47.696Z,19.20
2018-03-23T08:01:15.749Z,21.80
2018-03-23T08:03:43.800Z,23.33
2018-03-23T08:06:11.809Z,23.27
2018-03-23T08:08:39.848Z,20.13
2018-03-23T08:11:07.864Z,18.80
2018-03-23T08:13:35.991Z,20.50
2018-03-23T08:16:04.506Z,19.73
2018-03-23T08:18:32.527Z,21.67
2018-03-23T08:21:00.593Z,20.20
2018-03-23T08:23:28.588Z,21.30
2018-03-23T08:25:56.592Z,19.73
2018-03-23T08:28:24.848Z,22.20
2018-03-23T08:30:52.921Z,18.80
2018-03-23T08:33:20.919Z,17.93
2018-03-23T08:35:49.266Z,19.37
2018-03-23T08:38:17.325Z,19.43
2018-03-23T08:40:45.422Z,21.10
2018-03-23T08:43:13.486Z,19.93
2018-03-23T08:45:41.553Z,20.43
2018-03-23T08:48:09.636Z,21.63
2018-03-23T08:50:37.657Z,19.77
2018-03-23T08:53:05.666Z,22.80
2018-03-23T08:55:33.645Z,28.83
2018-03-23T08:58:01.754Z,21.70
2018-03-23T09:00:29.779Z,18.73
2018-03-23T09:02:58.072Z,19.07
2018-03-23T09:05:26.266Z,19.70
2018-03-23T09:07:54.496Z,19.57
2018-03-23T09:10:22.683Z,19.17
2018-03-23T09:12:50.742Z,19.20
2018-03-23T09:15:18.837Z,18.20
2018-03-23T09:17:46.963Z,17.60
2018-03-23T09:20:14.981Z,19.10
2018-03-23T09:22:43.037Z,16.90
2018-03-23T09:25:11.123Z,16.90
2018-03-23T09:27:39.507Z,17.93
2018-03-23T09:30:07.528Z,17.87
2018-03-23T09:32:35.584Z,16.20
2018-03-23T09:35:03.624Z,17.77
2018-03-23T09:37:31.656Z,21.40
2018-03-23T09:39:59.871Z,20.07
2018-03-23T09:42:27.906Z,17.40
2018-03-23T09:44:55.934Z,17.60
2018-03-23T09:47:23.964Z,18.60
2018-03-23T09:49:51.962Z,19.70
2018-03-23T09:52:20.009Z,20.53
2018-03-23T09:54:48.039Z,17.13
2018-03-23T09:57:16.175Z,20.47
2018-03-23T09:59:44.196Z,20.40
2018-03-23T10:02:12.267Z,18.90
2018-03-23T10:04:40.319Z,20.70
2018-03-23T10:07:08.347Z,18.73
2018-03-23T10:09:36.419Z,18.37
2018-03-23T10:12:04.435Z,19.20
2018-03-23T10:14:32.438Z,18.60
2018-03-23T10:17:00.457Z,20.23
2018-03-23T10:19:28.475Z,19.30
2018-03-23T10:21:56.565Z,19.33
2018-03-23T10:24:24.617Z,19.10
2018-03-23T10:26:52.654Z,18.50
2018-03-23T10:29:20.740Z,19.60
2018-03-23T10:31:48.798Z,18.10
2018-03-23T10:34:16.828Z,19.37
2018-03-23T10:36:44.919Z,17.80
2018-03-23T10:39:12.926Z,19.30
2018-03-23T10:41:40.953Z,20.80
2018-03-23T10:44:08.981Z,20.00
2018-03-23T10:46:37.017Z,20.57
2018-03-23T10:49:05.003Z,20.27
2018-03-23T10:51:33.066Z,19.97
2018-03-23T10:54:01.980Z,22.10
2018-03-23T10:56:29.993Z,20.07
2018-03-23T10:58:58.136Z,21.20
2018-03-23T11:01:32.856Z,20.10
2018-03-23T11:04:00.996Z,23.83
2018-03-23T11:06:29.831Z,21.77
2018-03-23T11:08:57.891Z,22.00
2018-03-23T11:11:25.933Z,20.07
2018-03-23T11:13:54.841Z,21.70
2018-03-23T11:16:23.005Z,20.20
2018-03-23T11:18:51.278Z,22.10
2018-03-23T11:21:19.390Z,20.60
2018-03-23T11:23:47.550Z,21.33
2018-03-23T11:26:15.616Z,21.20
2018-03-23T11:28:43.651Z,21.50
2018-03-23T11:31:11.662Z,21.13
2018-03-23T11:33:40.499Z,23.33
2018-03-23T11:36:08.518Z,23.40
2018-03-23T11:38:36.829Z,21.93
2018-03-23T11:41:05.142Z,21.07
2018-03-23T11:43:33.229Z,25.00
2018-03-23T11:46:01.323Z,20.20
2018-03-23T11:48:29.357Z,20.40
2018-03-23T11:50:57.387Z,22.47
2018-03-23T11:53:26.035Z,20.90
2018-03-23T11:55:54.052Z,23.27
2018-03-23T11:58:22.118Z,21.80
2018-03-23T12:00:50.145Z,22.20
2018-03-23T12:03:18.155Z,22.03
2018-03-23T12:05:46.172Z,21.47
2018-03-23T12:08:14.191Z,22.17
2018-03-23T12:10:42.202Z,21.60
2018-03-23T12:13:10.243Z,20.50
2018-03-23T12:15:38.281Z,20.57
2018-03-23T12:18:06.316Z,20.87
2018-03-23T12:20:34.412Z,24.27
2018-03-23T12:23:02.562Z,19.33
2018-03-23T12:25:30.628Z,21.87
2018-03-23T12:27:58.639Z,21.00
2018-03-23T12:30:26.750Z,23.20
2018-03-23T12:32:54.782Z,21.97
2018-03-23T12:35:22.783Z,22.00
2018-03-23T12:37:50.813Z,21.60
2018-03-23T12:40:18.804Z,23.77
2018-03-23T12:42:46.829Z,22.33
2018-03-23T12:45:14.836Z,23.33
2018-03-23T12:47:42.850Z,22.30
2018-03-23T12:50:10.842Z,21.00
2018-03-23T12:52:38.851Z,23.07
2018-03-23T12:55:06.875Z,23.50
2018-03-23T12:57:34.913Z,20.67
2018-03-23T13:00:02.920Z,22.00
2018-03-23T13:02:30.998Z,23.40
2018-03-23T13:04:59.012Z,21.13
2018-03-23T13:07:27.091Z,20.47
2018-03-23T13:09:55.160Z,21.17
2018-03-23T13:12:23.585Z,23.73
2018-03-23T13:14:51.821Z,22.20
2018-03-23T13:17:20.599Z,21.13
2018-03-23T13:19:48.866Z,21.10
2018-03-23T13:22:16.903Z,22.40
2018-03-23T13:24:44.915Z,23.87
2018-03-23T13:27:12.993Z,21.63
2018-03-23T13:29:41.103Z,23.30
2018-03-23T13:32:09.147Z,23.70
2018-03-23T13:34:37.205Z,22.30
2018-03-23T13:37:05.240Z,21.60
2018-03-23T13:39:33.242Z,22.30
2018-03-23T13:42:01.299Z,22.53
2018-03-23T13:44:29.319Z,21.50
2018-03-23T13:46:57.323Z,21.57
2018-03-23T13:49:25.368Z,21.70
2018-03-23T13:51:53.410Z,21.77
2018-03-23T13:54:21.586Z,22.00
2018-03-23T13:56:49.639Z,21.00
2018-03-23T13:59:23.297Z,20.60
2018-03-23T14:01:51.327Z,21.97
2018-03-23T14:04:19.360Z,21.27
2018-03-23T14:06:47.674Z,21.73
2018-03-23T14:09:15.685Z,21.90
2018-03-23T14:11:43.729Z,22.00
2018-03-23T14:14:12.393Z,21.23
2018-03-23T14:16:40.460Z,21.00
2018-03-23T14:19:08.471Z,21.90
2018-03-23T14:21:36.619Z,24.50
2018-03-23T14:24:05.085Z,21.20
2018-03-23T14:26:33.949Z,22.00
2018-03-23T14:29:02.299Z,22.60
2018-03-23T14:31:30.333Z,23.47
2018-03-23T14:33:58.455Z,21.60
2018-03-23T14:36:26.497Z,23.03
2018-03-23T14:38:54.533Z,22.90
2018-03-23T14:41:22.553Z,25.27
2018-03-23T14:43:50.615Z,22.97
2018-03-23T14:46:18.678Z,22.17
2018-03-23T14:48:46.749Z,23.77
2018-03-23T14:51:14.832Z,22.80
2018-03-23T14:53:43.051Z,22.50
2018-03-23T14:56:11.167Z,22.90
2018-03-23T14:58:44.896Z,25.37
2018-03-23T15:01:12.956Z,25.03
2018-03-23T15:03:41.027Z,22.00
2018-03-23T15:06:09.071Z,23.80
2018-03-23T15:08:37.218Z,22.87
2018-03-23T15:11:05.529Z,22.87
2018-03-23T15:13:33.525Z,22.80
2018-03-23T15:16:01.596Z,22.60
2018-03-23T15:18:30.055Z,21.40
2018-03-23T15:23:32.378Z,22.63
2018-03-23T15:26:00.416Z,20.97
2018-03-23T15:28:28.640Z,20.47
2018-03-23T15:30:56.658Z,22.73
2018-03-23T15:33:25.122Z,22.70
2018-03-23T15:35:53.145Z,27.57
2018-03-23T15:38:21.180Z,24.90
2018-03-23T15:40:49.450Z,24.40
2018-03-23T15:43:17.460Z,24.90
2018-03-23T15:45:45.487Z,21.90
2018-03-23T15:48:13.489Z,23.37
2018-03-23T15:50:41.521Z,24.00
2018-03-23T15:53:09.537Z,23.37
2018-03-23T15:55:37.595Z,23.80
2018-03-23T15:58:05.649Z,27.33
2018-03-23T16:00:34.130Z,26.00
2018-03-23T16:03:03.128Z,27.90
2018-03-23T16:05:31.475Z,24.50
2018-03-23T16:08:00.918Z,24.93
2018-03-23T16:10:29.172Z,25.30
2018-03-23T16:12:57.190Z,24.90
2018-03-23T16:15:25.472Z,25.90
2018-03-23T16:17:53.491Z,25.33
2018-03-23T16:20:21.569Z,27.30
2018-03-23T16:22:49.601Z,27.00
2018-03-23T16:25:18.657Z,24.37
2018-03-23T16:27:46.699Z,24.37
2018-03-23T16:30:14.700Z,23.80
2018-03-23T16:32:42.749Z,24.17
2018-03-23T16:35:11.259Z,23.17
2018-03-23T16:37:39.408Z,23.30
2018-03-23T16:40:07.421Z,25.50
2018-03-23T16:42:35.460Z,24.73
2018-03-23T16:45:03.550Z,24.07
2018-03-23T16:47:31.597Z,25.10
2018-03-23T16:49:59.605Z,23.97
2018-03-23T16:52:27.622Z,24.97
2018-03-23T16:54:55.647Z,24.03
2018-03-23T16:57:24.090Z,24.73
2018-03-23T16:59:52.180Z,24.30
2018-03-23T17:02:20.242Z,25.13
2018-03-23T17:04:49.117Z,24.93
2018-03-23T17:07:17.131Z,25.50
2018-03-23T17:09:45.185Z,25.53
2018-03-23T17:12:13.230Z,27.80
2018-03-23T17:14:41.240Z,32.97
2018-03-23T17:17:09.311Z,24.07
2018-03-23T17:19:37.326Z,24.07
2018-03-23T17:22:05.333Z,23.90
2018-03-23T17:24:33.360Z,24.37
2018-03-23T17:27:01.391Z,25.60
2018-03-23T17:29:29.455Z,25.60
2018-03-23T17:31:57.510Z,24.60
2018-03-23T17:34:25.561Z,23.33
2018-03-23T17:36:53.585Z,24.33
2018-03-23T17:39:21.619Z,23.00
2018-03-23T17:41:49.625Z,25.87
2018-03-23T17:44:17.664Z,23.80
2018-03-23T17:46:46.444Z,24.00
2018-03-23T17:49:14.538Z,24.70
2018-03-23T17:51:42.558Z,25.90
2018-03-23T17:54:10.660Z,25.93
2018-03-23T17:56:38.693Z,25.30
2018-03-23T17:59:06.775Z,23.43
2018-03-23T18:01:34.832Z,26.10
2018-03-23T18:04:02.935Z,26.43
2018-03-23T18:06:30.949Z,27.30
2018-03-23T18:08:59.015Z,27.73
2018-03-23T18:11:27.074Z,27.63
2018-03-23T18:13:55.150Z,25.37
2018-03-23T18:16:23.193Z,28.70
2018-03-23T18:18:51.202Z,26.50
2018-03-23T18:21:19.198Z,26.70
2018-03-23T18:23:47.239Z,25.20
2018-03-23T18:26:15.284Z,27.90
2018-03-23T18:28:43.314Z,26.37
2018-03-23T18:31:11.382Z,25.60
2018-03-23T18:33:39.459Z,27.70
2018-03-23T18:36:07.467Z,26.13
2018-03-23T18:38:35.569Z,25.93
2018-03-23T18:41:04.284Z,29.47
2018-03-23T18:43:32.324Z,26.60
2018-03-23T18:46:00.347Z,28.90
2018-03-23T18:48:28.374Z,28.70
2018-03-23T18:50:56.443Z,29.40
2018-03-23T18:53:24.581Z,28.90
2018-03-23T18:55:52.682Z,29.37
2018-03-23T18:58:21.366Z,29.23
2018-03-23T19:00:49.410Z,29.20
2018-03-23T19:03:17.407Z,29.70
2018-03-23T19:05:45.420Z,30.23
2018-03-23T19:08:13.621Z,28.60
2018-03-23T19:10:41.684Z,29.43
2018-03-23T19:13:09.873Z,29.47
2018-03-23T19:15:37.991Z,28.73
2018-03-23T19:18:05.934Z,29.13
2018-03-23T19:20:33.947Z,28.13
2018-03-23T19:23:01.977Z,33.13
2018-03-23T19:25:29.989Z,31.10
2018-03-23T19:27:57.992Z,30.73
2018-03-23T19:30:25.992Z,27.53
2018-03-23T19:32:53.995Z,28.87
2018-03-23T19:35:22.137Z,31.30
2018-03-23T19:37:50.138Z,31.63
2018-03-23T19:40:18.250Z,33.77
2018-03-23T19:42:46.283Z,29.40
2018-03-23T19:45:14.336Z,30.03
2018-03-23T19:47:42.296Z,30.23
2018-03-23T19:50:10.335Z,28.73
2018-03-23T19:52:38.341Z,30.77
2018-03-23T19:55:06.368Z,29.37
2018-03-23T19:57:34.397Z,29.60
2018-03-23T20:00:02.408Z,29.33
2018-03-23T20:02:30.483Z,33.03
2018-03-23T20:04:58.551Z,31.67
2018-03-23T20:07:26.647Z,29.77
2018-03-23T20:09:54.671Z,31.70
2018-03-23T20:12:22.696Z,29.60
2018-03-23T20:14:50.675Z,31.30
2018-03-23T20:20:22.114Z,31.67
2018-03-23T20:22:50.130Z,28.90
2018-03-23T20:25:18.193Z,30.37
2018-03-23T20:27:51.928Z,29.70
2018-03-23T20:30:19.940Z,28.20
2018-03-23T20:32:48.005Z,28.67
2018-03-23T20:35:16.257Z,29.37
2018-03-23T20:37:44.618Z,32.63
2018-03-23T20:40:13.002Z,30.03
2018-03-23T20:42:41.006Z,30.03
2018-03-23T20:45:09.009Z,31.23
2018-03-23T20:47:37.071Z,29.30
2018-03-23T20:50:05.973Z,29.53
2018-03-23T20:52:33.971Z,29.10
2018-03-23T20:55:01.981Z,30.50
2018-03-23T20:57:29.955Z,28.03
2018-03-23T20:59:57.983Z,29.87
2018-03-23T21:02:26.578Z,30.67
2018-03-23T21:04:54.641Z,31.30
2018-03-23T21:07:22.673Z,30.90
2018-03-23T21:09:50.746Z,26.73
2018-03-23T21:12:18.784Z,27.80
2018-03-23T21:14:46.792Z,27.30
2018-03-23T21:17:14.792Z,27.40
2018-03-23T21:19:42.798Z,26.80
2018-03-23T21:22:10.934Z,27.30
2018-03-23T21:24:38.991Z,27.03
2018-03-23T21:27:07.015Z,26.73
2018-03-23T21:29:35.284Z,27.40
2018-03-23T21:32:03.299Z,24.83
2018-03-23T21:34:31.637Z,26.23
2018-03-23T21:36:59.657Z,25.63
2018-03-23T21:39:27.671Z,24.33
2018-03-23T21:41:55.698Z,24.00
2018-03-23T21:44:23.698Z,25.43
2018-03-23T21:46:51.791Z,24.87
2018-03-23T21:49:19.906Z,26.77
2018-03-23T21:51:47.947Z,23.67
2018-03-23T21:54:15.981Z,22.77
2018-03-23T21:56:43.977Z,25.60
2018-03-23T21:59:12.017Z,24.70
2018-03-23T22:01:40.038Z,23.60
2018-03-23T22:04:08.092Z,22.80
2018-03-23T22:06:36.134Z,23.03
2018-03-23T22:09:04.182Z,23.98
2018-03-23T22:11:32.425Z,22.63
2018-03-23T22:14:00.679Z,26.87
2018-03-23T22:16:35.557Z,21.17
2018-03-23T22:19:04.238Z,23.73
2018-03-23T22:21:34.067Z,24.17
2018-03-23T22:24:02.209Z,23.03
2018-03-23T22:26:31.091Z,24.53
2018-03-23T22:29:00.083Z,22.60
2018-03-23T22:31:29.014Z,21.58
2018-03-23T22:33:57.243Z,22.57
2018-03-23T22:36:25.555Z,22.17
2018-03-23T22:38:54.515Z,20.10
2018-03-23T22:41:22.918Z,20.27
2018-03-23T22:43:51.176Z,22.00
2018-03-23T22:46:19.475Z,19.70
2018-03-23T22:48:48.935Z,22.03
2018-03-23T22:51:17.069Z,21.13
2018-03-23T22:53:46.124Z,22.97
2018-03-23T22:56:17.171Z,21.10
2018-03-23T22:58:45.203Z,20.60
2018-03-23T23:01:13.480Z,21.07
2018-03-23T23:03:42.032Z,20.50
2018-03-23T23:06:10.413Z,22.30
2018-03-23T23:08:38.901Z,19.60
2018-03-23T23:11:08.142Z,21.60
2018-03-23T23:13:38.277Z,22.73
2018-03-23T23:16:06.830Z,20.77
2018-03-23T23:18:35.225Z,21.77
2018-03-23T23:21:04.708Z,19.83
2018-03-23T23:23:33.674Z,20.70
2018-03-23T23:26:01.911Z,22.20
2018-03-23T23:28:30.220Z,20.43
2018-03-23T23:30:58.429Z,20.57
2018-03-23T23:33:26.783Z,20.97
2018-03-23T23:35:56.418Z,20.70
2018-03-23T23:38:24.551Z,20.50
2018-03-23T23:40:52.630Z,23.47
2018-03-23T23:43:20.667Z,22.10
2018-03-23T23:45:48.852Z,20.40
2018-03-23T23:48:16.909Z,22.63
2018-03-23T23:50:45.160Z,21.80
2018-03-23T23:53:13.307Z,20.50
2018-03-23T23:55:41.525Z,18.83
